sensor_id;sensor_type;location;lat;lon;timestamp;P1;durP1;ratioP1;P2;durP2;ratioP2
29412;SDS011;16389;50.126;8.450;2023-04-29T00:01:04;3.50;;;1.70;;
29412;SDS011;16389;50.126;8.450;2023-04-29T00:03:29;3.28;;;1.65;;
29412;SDS011;16389;50.126;8.450;2023-04-29T00:05:59;2.83;;;1.50;;
29412;SDS011;16389;50.126;8.450;2023-04-29T00:08:25;4.25;;;1.50;;
29412;SDS011;16389;50.126;8.450;2023-04-29T00:10:51;2.60;;;1.60;;
29412;SDS011;16389;50.126;8.450;2023-04-29T00:13:16;2.67;;;2.45;;
29412;SDS011;16389;50.126;8.450;2023-04-29T00:15:42;3.33;;;2.35;;
29412;SDS011;16389;50.126;8.450;2023-04-29T00:18:08;1.88;;;1.73;;
29412;SDS011;16389;50.126;8.450;2023-04-29T00:20:34;1.30;;;1.20;;
29412;SDS011;16389;50.126;8.450;2023-04-29T00:23:02;6.00;;;1.38;;
29412;SDS011;16389;50.126;8.450;2023-04-29T00:25:27;1.73;;;1.50;;
29412;SDS011;16389;50.126;8.450;2023-04-29T00:27:54;1.27;;;1.17;;
29412;SDS011;16389;50.126;8.450;2023-04-29T00:30:20;1.70;;;1.60;;
29412;SDS011;16389;50.126;8.450;2023-04-29T00:32:46;1.50;;;1.40;;
29412;SDS011;16389;50.126;8.450;2023-04-29T00:35:11;2.55;;;1.52;;
29412;SDS011;16389;50.126;8.450;2023-04-29T00:37:37;2.25;;;1.35;;
29412;SDS011;16389;50.126;8.450;2023-04-29T00:40:04;6.43;;;1.60;;
29412;SDS011;16389;50.126;8.450;2023-04-29T00:42:30;2.95;;;1.30;;
29412;SDS011;16389;50.126;8.450;2023-04-29T00:44:59;1.30;;;1.20;;
29412;SDS011;16389;50.126;8.450;2023-04-29T00:47:24;1.90;;;1.25;;
29412;SDS011;16389;50.126;8.450;2023-04-29T00:49:50;1.40;;;1.08;;
29412;SDS011;16389;50.126;8.450;2023-04-29T00:52:16;1.30;;;1.20;;
29412;SDS011;16389;50.126;8.450;2023-04-29T00:54:42;2.15;;;1.20;;
29412;SDS011;16389;50.126;8.450;2023-04-29T00:57:08;1.50;;;1.30;;
29412;SDS011;16389;50.126;8.450;2023-04-29T00:59:40;1.58;;;1.25;;
29412;SDS011;16389;50.126;8.450;2023-04-29T01:02:09;2.80;;;1.30;;
29412;SDS011;16389;50.126;8.450;2023-04-29T01:04:36;1.45;;;1.30;;
29412;SDS011;16389;50.126;8.450;2023-04-29T01:10:00;4.00;;;1.00;;
29412;SDS011;16389;50.126;8.450;2023-04-29T01:12:56;2.55;;;1.20;;
29412;SDS011;16389;50.126;8.450;2023-04-29T01:15:32;1.48;;;1.27;;
29412;SDS011;16389;50.126;8.450;2023-04-29T01:18:14;1.20;;;1.10;;
29412;SDS011;16389;50.126;8.450;2023-04-29T01:20:45;3.42;;;1.50;;
29412;SDS011;16389;50.126;8.450;2023-04-29T01:23:10;1.77;;;1.45;;
29412;SDS011;16389;50.126;8.450;2023-04-29T01:25:39;1.77;;;1.40;;
29412;SDS011;16389;50.126;8.450;2023-04-29T01:30:53;1.60;;;1.50;;
29412;SDS011;16389;50.126;8.450;2023-04-29T01:36:15;1.48;;;1.38;;
29412;SDS011;16389;50.126;8.450;2023-04-29T01:39:13;1.98;;;1.45;;
29412;SDS011;16389;50.126;8.450;2023-04-29T01:45:00;4.65;;;1.50;;
29412;SDS011;16389;50.126;8.450;2023-04-29T01:47:31;3.05;;;1.38;;
29412;SDS011;16389;50.126;8.450;2023-04-29T01:49:58;1.52;;;1.42;;
29412;SDS011;16389;50.126;8.450;2023-04-29T01:52:23;2.03;;;1.70;;
29412;SDS011;16389;50.126;8.450;2023-04-29T01:54:49;2.78;;;1.83;;
29412;SDS011;16389;50.126;8.450;2023-04-29T01:57:15;1.63;;;1.52;;
29412;SDS011;16389;50.126;8.450;2023-04-29T01:59:41;2.40;;;1.60;;
29412;SDS011;16389;50.126;8.450;2023-04-29T02:02:06;4.13;;;1.80;;
29412;SDS011;16389;50.126;8.450;2023-04-29T02:04:32;2.70;;;1.73;;
29412;SDS011;16389;50.126;8.450;2023-04-29T02:06:58;2.22;;;1.50;;
29412;SDS011;16389;50.126;8.450;2023-04-29T02:09:24;2.75;;;1.92;;
29412;SDS011;16389;50.126;8.450;2023-04-29T02:11:50;1.90;;;1.75;;
29412;SDS011;16389;50.126;8.450;2023-04-29T02:14:19;2.40;;;2.20;;
29412;SDS011;16389;50.126;8.450;2023-04-29T02:16:45;2.80;;;2.25;;
29412;SDS011;16389;50.126;8.450;2023-04-29T02:19:11;2.97;;;2.53;;
29412;SDS011;16389;50.126;8.450;2023-04-29T02:21:37;3.65;;;2.97;;
29412;SDS011;16389;50.126;8.450;2023-04-29T02:24:05;3.80;;;3.30;;
29412;SDS011;16389;50.126;8.450;2023-04-29T02:26:31;3.72;;;3.40;;
29412;SDS011;16389;50.126;8.450;2023-04-29T02:28:58;5.25;;;4.53;;
29412;SDS011;16389;50.126;8.450;2023-04-29T02:31:24;5.50;;;3.95;;
29412;SDS011;16389;50.126;8.450;2023-04-29T02:33:50;5.05;;;4.55;;
29412;SDS011;16389;50.126;8.450;2023-04-29T02:36:15;6.57;;;4.75;;
29412;SDS011;16389;50.126;8.450;2023-04-29T02:38:42;4.88;;;3.80;;
29412;SDS011;16389;50.126;8.450;2023-04-29T02:41:08;5.25;;;4.00;;
29412;SDS011;16389;50.126;8.450;2023-04-29T02:43:36;5.22;;;4.32;;
29412;SDS011;16389;50.126;8.450;2023-04-29T02:46:02;4.90;;;4.25;;
29412;SDS011;16389;50.126;8.450;2023-04-29T02:48:27;6.38;;;5.18;;
29412;SDS011;16389;50.126;8.450;2023-04-29T02:50:53;7.05;;;5.45;;
29412;SDS011;16389;50.126;8.450;2023-04-29T02:53:18;6.65;;;6.03;;
29412;SDS011;16389;50.126;8.450;2023-04-29T02:55:44;6.05;;;5.35;;
29412;SDS011;16389;50.126;8.450;2023-04-29T02:58:11;7.43;;;6.38;;
29412;SDS011;16389;50.126;8.450;2023-04-29T03:00:36;6.47;;;5.88;;
29412;SDS011;16389;50.126;8.450;2023-04-29T03:03:04;6.03;;;5.43;;
29412;SDS011;16389;50.126;8.450;2023-04-29T03:05:30;6.18;;;5.57;;
29412;SDS011;16389;50.126;8.450;2023-04-29T03:07:56;5.40;;;4.90;;
29412;SDS011;16389;50.126;8.450;2023-04-29T03:10:24;5.88;;;5.28;;
29412;SDS011;16389;50.126;8.450;2023-04-29T03:12:50;4.70;;;4.22;;
29412;SDS011;16389;50.126;8.450;2023-04-29T03:15:16;7.07;;;6.38;;
29412;SDS011;16389;50.126;8.450;2023-04-29T03:17:42;6.70;;;6.10;;
29412;SDS011;16389;50.126;8.450;2023-04-29T03:20:09;6.78;;;6.10;;
29412;SDS011;16389;50.126;8.450;2023-04-29T03:22:36;7.07;;;6.47;;
29412;SDS011;16389;50.126;8.450;2023-04-29T03:25:01;7.43;;;6.72;;
29412;SDS011;16389;50.126;8.450;2023-04-29T03:27:27;7.43;;;6.72;;
29412;SDS011;16389;50.126;8.450;2023-04-29T03:29:53;9.52;;;7.30;;
29412;SDS011;16389;50.126;8.450;2023-04-29T03:32:19;7.50;;;6.35;;
29412;SDS011;16389;50.126;8.450;2023-04-29T03:34:44;7.75;;;7.00;;
29412;SDS011;16389;50.126;8.450;2023-04-29T03:37:10;8.25;;;6.85;;
29412;SDS011;16389;50.126;8.450;2023-04-29T03:39:36;7.30;;;6.60;;
29412;SDS011;16389;50.126;8.450;2023-04-29T03:42:02;8.55;;;7.35;;
29412;SDS011;16389;50.126;8.450;2023-04-29T03:44:28;15.02;;;8.90;;
29412;SDS011;16389;50.126;8.450;2023-04-29T03:46:54;9.55;;;8.55;;
29412;SDS011;16389;50.126;8.450;2023-04-29T03:49:19;10.48;;;9.18;;
29412;SDS011;16389;50.126;8.450;2023-04-29T03:51:45;10.52;;;9.00;;
29412;SDS011;16389;50.126;8.450;2023-04-29T03:54:11;9.73;;;7.97;;
29412;SDS011;16389;50.126;8.450;2023-04-29T03:56:37;11.13;;;8.93;;
29412;SDS011;16389;50.126;8.450;2023-04-29T03:59:03;9.00;;;8.00;;
29412;SDS011;16389;50.126;8.450;2023-04-29T04:01:29;11.32;;;9.35;;
29412;SDS011;16389;50.126;8.450;2023-04-29T04:03:55;11.18;;;9.95;;
29412;SDS011;16389;50.126;8.450;2023-04-29T04:06:21;12.00;;;10.80;;
29412;SDS011;16389;50.126;8.450;2023-04-29T04:08:48;13.38;;;10.43;;
29412;SDS011;16389;50.126;8.450;2023-04-29T04:11:13;12.68;;;9.70;;
29412;SDS011;16389;50.126;8.450;2023-04-29T04:13:42;12.23;;;10.40;;
29412;SDS011;16389;50.126;8.450;2023-04-29T04:16:08;11.65;;;10.43;;
29412;SDS011;16389;50.126;8.450;2023-04-29T04:18:37;12.75;;;10.77;;
29412;SDS011;16389;50.126;8.450;2023-04-29T04:21:06;12.25;;;11.15;;
29412;SDS011;16389;50.126;8.450;2023-04-29T04:23:33;12.55;;;10.20;;
29412;SDS011;16389;50.126;8.450;2023-04-29T04:25:59;11.18;;;10.07;;
29412;SDS011;16389;50.126;8.450;2023-04-29T04:28:25;11.82;;;10.63;;
29412;SDS011;16389;50.126;8.450;2023-04-29T04:30:51;12.43;;;10.30;;
29412;SDS011;16389;50.126;8.450;2023-04-29T04:33:16;18.88;;;11.45;;
29412;SDS011;16389;50.126;8.450;2023-04-29T04:35:42;15.57;;;10.38;;
29412;SDS011;16389;50.126;8.450;2023-04-29T04:38:08;12.57;;;10.48;;
29412;SDS011;16389;50.126;8.450;2023-04-29T04:40:35;14.57;;;10.73;;
29412;SDS011;16389;50.126;8.450;2023-04-29T04:43:01;14.98;;;11.48;;
29412;SDS011;16389;50.126;8.450;2023-04-29T04:45:27;16.35;;;9.98;;
29412;SDS011;16389;50.126;8.450;2023-04-29T04:47:56;11.63;;;9.50;;
29412;SDS011;16389;50.126;8.450;2023-04-29T04:50:22;11.68;;;8.63;;
29412;SDS011;16389;50.126;8.450;2023-04-29T04:52:53;13.70;;;9.02;;
29412;SDS011;16389;50.126;8.450;2023-04-29T04:55:19;8.32;;;7.43;;
29412;SDS011;16389;50.126;8.450;2023-04-29T04:57:47;9.38;;;8.20;;
29412;SDS011;16389;50.126;8.450;2023-04-29T05:00:13;9.57;;;7.60;;
29412;SDS011;16389;50.126;8.450;2023-04-29T05:02:39;8.13;;;7.22;;
29412;SDS011;16389;50.126;8.450;2023-04-29T05:05:05;7.90;;;6.78;;
29412;SDS011;16389;50.126;8.450;2023-04-29T05:07:31;10.95;;;7.72;;
29412;SDS011;16389;50.126;8.450;2023-04-29T05:10:00;11.73;;;7.85;;
29412;SDS011;16389;50.126;8.450;2023-04-29T05:12:30;10.20;;;7.68;;
29412;SDS011;16389;50.126;8.450;2023-04-29T05:14:56;8.07;;;6.32;;
29412;SDS011;16389;50.126;8.450;2023-04-29T05:17:23;9.15;;;7.07;;
29412;SDS011;16389;50.126;8.450;2023-04-29T05:19:49;7.75;;;5.82;;
29412;SDS011;16389;50.126;8.450;2023-04-29T05:22:15;11.40;;;6.25;;
29412;SDS011;16389;50.126;8.450;2023-04-29T05:24:41;7.40;;;5.20;;
29412;SDS011;16389;50.126;8.450;2023-04-29T05:27:10;7.13;;;6.22;;
29412;SDS011;16389;50.126;8.450;2023-04-29T05:29:35;8.23;;;5.93;;
29412;SDS011;16389;50.126;8.450;2023-04-29T05:32:02;9.63;;;5.93;;
29412;SDS011;16389;50.126;8.450;2023-04-29T05:34:28;7.20;;;5.20;;
29412;SDS011;16389;50.126;8.450;2023-04-29T05:36:54;6.70;;;5.00;;
29412;SDS011;16389;50.126;8.450;2023-04-29T05:39:21;8.40;;;6.03;;
29412;SDS011;16389;50.126;8.450;2023-04-29T05:41:47;5.97;;;4.65;;
29412;SDS011;16389;50.126;8.450;2023-04-29T05:44:13;6.68;;;5.18;;
29412;SDS011;16389;50.126;8.450;2023-04-29T05:46:38;6.93;;;4.95;;
29412;SDS011;16389;50.126;8.450;2023-04-29T05:49:04;6.70;;;5.15;;
29412;SDS011;16389;50.126;8.450;2023-04-29T05:51:30;8.43;;;5.55;;
29412;SDS011;16389;50.126;8.450;2023-04-29T05:53:56;6.78;;;4.45;;
29412;SDS011;16389;50.126;8.450;2023-04-29T05:56:23;5.43;;;4.78;;
29412;SDS011;16389;50.126;8.450;2023-04-29T05:58:49;6.85;;;4.40;;
29412;SDS011;16389;50.126;8.450;2023-04-29T06:01:15;6.68;;;3.92;;
29412;SDS011;16389;50.126;8.450;2023-04-29T06:03:43;10.00;;;5.78;;
29412;SDS011;16389;50.126;8.450;2023-04-29T06:06:09;7.15;;;4.85;;
29412;SDS011;16389;50.126;8.450;2023-04-29T06:08:36;8.02;;;4.22;;
29412;SDS011;16389;50.126;8.450;2023-04-29T06:11:02;6.43;;;4.32;;
29412;SDS011;16389;50.126;8.450;2023-04-29T06:13:29;5.53;;;4.18;;
29412;SDS011;16389;50.126;8.450;2023-04-29T06:15:56;4.45;;;3.95;;
29412;SDS011;16389;50.126;8.450;2023-04-29T06:18:21;5.57;;;4.05;;
29412;SDS011;16389;50.126;8.450;2023-04-29T06:20:47;4.90;;;3.80;;
29412;SDS011;16389;50.126;8.450;2023-04-29T06:23:13;5.28;;;4.13;;
29412;SDS011;16389;50.126;8.450;2023-04-29T06:25:38;4.68;;;3.75;;
29412;SDS011;16389;50.126;8.450;2023-04-29T06:28:04;6.22;;;4.85;;
29412;SDS011;16389;50.126;8.450;2023-04-29T06:30:30;6.90;;;4.70;;
29412;SDS011;16389;50.126;8.450;2023-04-29T06:32:55;5.10;;;3.80;;
29412;SDS011;16389;50.126;8.450;2023-04-29T06:35:21;7.20;;;4.55;;
29412;SDS011;16389;50.126;8.450;2023-04-29T06:37:48;5.50;;;4.72;;
29412;SDS011;16389;50.126;8.450;2023-04-29T06:40:14;6.18;;;4.78;;
29412;SDS011;16389;50.126;8.450;2023-04-29T06:42:39;5.65;;;4.50;;
29412;SDS011;16389;50.126;8.450;2023-04-29T06:45:07;6.00;;;4.43;;
29412;SDS011;16389;50.126;8.450;2023-04-29T06:47:33;5.95;;;4.75;;
29412;SDS011;16389;50.126;8.450;2023-04-29T06:49:59;8.02;;;4.47;;
29412;SDS011;16389;50.126;8.450;2023-04-29T06:52:24;4.95;;;3.90;;
29412;SDS011;16389;50.126;8.450;2023-04-29T06:54:50;7.10;;;4.90;;
29412;SDS011;16389;50.126;8.450;2023-04-29T06:57:16;6.90;;;4.10;;
29412;SDS011;16389;50.126;8.450;2023-04-29T06:59:42;5.25;;;4.75;;
29412;SDS011;16389;50.126;8.450;2023-04-29T07:02:07;6.32;;;4.25;;
29412;SDS011;16389;50.126;8.450;2023-04-29T07:04:33;6.18;;;4.30;;
29412;SDS011;16389;50.126;8.450;2023-04-29T07:07:02;6.45;;;4.80;;
29412;SDS011;16389;50.126;8.450;2023-04-29T07:09:27;6.63;;;4.20;;
29412;SDS011;16389;50.126;8.450;2023-04-29T07:11:53;4.78;;;3.67;;
29412;SDS011;16389;50.126;8.450;2023-04-29T07:14:19;7.90;;;5.05;;
29412;SDS011;16389;50.126;8.450;2023-04-29T07:16:46;7.03;;;4.20;;
29412;SDS011;16389;50.126;8.450;2023-04-29T07:19:12;5.10;;;3.55;;
29412;SDS011;16389;50.126;8.450;2023-04-29T07:21:38;4.75;;;3.92;;
29412;SDS011;16389;50.126;8.450;2023-04-29T07:24:04;4.78;;;4.07;;
29412;SDS011;16389;50.126;8.450;2023-04-29T07:26:29;5.25;;;3.47;;
29412;SDS011;16389;50.126;8.450;2023-04-29T07:28:55;3.97;;;3.25;;
29412;SDS011;16389;50.126;8.450;2023-04-29T07:31:21;4.57;;;3.67;;
29412;SDS011;16389;50.126;8.450;2023-04-29T07:33:47;4.70;;;3.72;;
29412;SDS011;16389;50.126;8.450;2023-04-29T07:36:13;5.97;;;3.45;;
29412;SDS011;16389;50.126;8.450;2023-04-29T07:38:39;4.80;;;3.33;;
29412;SDS011;16389;50.126;8.450;2023-04-29T07:41:05;4.75;;;3.78;;
29412;SDS011;16389;50.126;8.450;2023-04-29T07:43:30;6.03;;;3.22;;
29412;SDS011;16389;50.126;8.450;2023-04-29T07:45:56;4.45;;;3.63;;
29412;SDS011;16389;50.126;8.450;2023-04-29T07:48:22;4.68;;;3.83;;
29412;SDS011;16389;50.126;8.450;2023-04-29T07:50:47;5.40;;;3.45;;
29412;SDS011;16389;50.126;8.450;2023-04-29T07:53:13;4.00;;;3.60;;
29412;SDS011;16389;50.126;8.450;2023-04-29T07:55:40;5.53;;;3.70;;
29412;SDS011;16389;50.126;8.450;2023-04-29T07:58:05;4.13;;;3.70;;
29412;SDS011;16389;50.126;8.450;2023-04-29T08:00:31;4.38;;;3.97;;
29412;SDS011;16389;50.126;8.450;2023-04-29T08:02:57;4.28;;;3.88;;
29412;SDS011;16389;50.126;8.450;2023-04-29T08:05:23;4.10;;;3.28;;
29412;SDS011;16389;50.126;8.450;2023-04-29T08:07:49;4.30;;;3.90;;
29412;SDS011;16389;50.126;8.450;2023-04-29T08:10:16;7.10;;;3.70;;
29412;SDS011;16389;50.126;8.450;2023-04-29T08:12:46;5.95;;;3.10;;
29412;SDS011;16389;50.126;8.450;2023-04-29T08:15:12;4.20;;;3.05;;
29412;SDS011;16389;50.126;8.450;2023-04-29T08:17:38;3.83;;;3.05;;
29412;SDS011;16389;50.126;8.450;2023-04-29T08:20:04;4.10;;;2.92;;
29412;SDS011;16389;50.126;8.450;2023-04-29T08:22:31;4.03;;;2.85;;
29412;SDS011;16389;50.126;8.450;2023-04-29T08:24:57;2.67;;;2.30;;
29412;SDS011;16389;50.126;8.450;2023-04-29T08:27:23;3.70;;;2.53;;
29412;SDS011;16389;50.126;8.450;2023-04-29T08:29:49;3.35;;;3.00;;
29412;SDS011;16389;50.126;8.450;2023-04-29T08:32:15;4.25;;;3.00;;
29412;SDS011;16389;50.126;8.450;2023-04-29T08:34:41;3.10;;;2.78;;
29412;SDS011;16389;50.126;8.450;2023-04-29T08:37:09;4.10;;;2.97;;
29412;SDS011;16389;50.126;8.450;2023-04-29T08:39:35;2.85;;;2.50;;
29412;SDS011;16389;50.126;8.450;2023-04-29T08:42:07;3.30;;;2.90;;
29412;SDS011;16389;50.126;8.450;2023-04-29T08:44:34;3.55;;;3.25;;
29412;SDS011;16389;50.126;8.450;2023-04-29T08:47:01;2.55;;;2.35;;
29412;SDS011;16389;50.126;8.450;2023-04-29T08:49:30;3.65;;;2.65;;
29412;SDS011;16389;50.126;8.450;2023-04-29T08:51:57;3.60;;;3.30;;
29412;SDS011;16389;50.126;8.450;2023-04-29T08:54:24;3.72;;;3.28;;
29412;SDS011;16389;50.126;8.450;2023-04-29T08:56:50;5.00;;;3.05;;
29412;SDS011;16389;50.126;8.450;2023-04-29T08:59:17;3.70;;;3.22;;
29412;SDS011;16389;50.126;8.450;2023-04-29T09:01:44;5.75;;;3.42;;
29412;SDS011;16389;50.126;8.450;2023-04-29T09:07:03;4.03;;;2.53;;
29412;SDS011;16389;50.126;8.450;2023-04-29T09:09:30;4.93;;;3.03;;
29412;SDS011;16389;50.126;8.450;2023-04-29T09:11:57;4.35;;;3.28;;
29412;SDS011;16389;50.126;8.450;2023-04-29T09:14:23;4.47;;;2.80;;
29412;SDS011;16389;50.126;8.450;2023-04-29T09:16:49;3.38;;;3.05;;
29412;SDS011;16389;50.126;8.450;2023-04-29T09:19:31;4.88;;;3.20;;
29412;SDS011;16389;50.126;8.450;2023-04-29T09:21:59;3.47;;;3.10;;
29412;SDS011;16389;50.126;8.450;2023-04-29T09:24:26;3.83;;;2.85;;
29412;SDS011;16389;50.126;8.450;2023-04-29T09:26:53;4.05;;;3.65;;
29412;SDS011;16389;50.126;8.450;2023-04-29T09:29:20;4.60;;;3.50;;
29412;SDS011;16389;50.126;8.450;2023-04-29T09:31:48;4.35;;;3.95;;
29412;SDS011;16389;50.126;8.450;2023-04-29T09:34:14;4.82;;;3.50;;
29412;SDS011;16389;50.126;8.450;2023-04-29T09:39:14;3.88;;;3.40;;
29412;SDS011;16389;50.126;8.450;2023-04-29T09:44:23;3.83;;;3.40;;
29412;SDS011;16389;50.126;8.450;2023-04-29T09:47:08;6.13;;;3.47;;
29412;SDS011;16389;50.126;8.450;2023-04-29T09:49:41;3.42;;;2.67;;
29412;SDS011;16389;50.126;8.450;2023-04-29T09:52:13;5.18;;;3.60;;
29412;SDS011;16389;50.126;8.450;2023-04-29T09:54:41;3.50;;;3.17;;
29412;SDS011;16389;50.126;8.450;2023-04-29T09:57:09;3.72;;;3.33;;
29412;SDS011;16389;50.126;8.450;2023-04-29T09:59:36;3.25;;;2.83;;
29412;SDS011;16389;50.126;8.450;2023-04-29T10:02:13;3.75;;;2.83;;
29412;SDS011;16389;50.126;8.450;2023-04-29T10:05:01;3.55;;;3.13;;
29412;SDS011;16389;50.126;8.450;2023-04-29T10:07:27;2.72;;;2.47;;
29412;SDS011;16389;50.126;8.450;2023-04-29T10:09:53;3.00;;;2.47;;
29412;SDS011;16389;50.126;8.450;2023-04-29T10:12:20;2.97;;;2.67;;
29412;SDS011;16389;50.126;8.450;2023-04-29T10:17:42;4.13;;;2.78;;
29412;SDS011;16389;50.126;8.450;2023-04-29T10:20:13;3.20;;;2.80;;
29412;SDS011;16389;50.126;8.450;2023-04-29T10:22:44;2.95;;;2.55;;
29412;SDS011;16389;50.126;8.450;2023-04-29T10:25:12;2.22;;;1.90;;
29412;SDS011;16389;50.126;8.450;2023-04-29T10:27:42;2.50;;;2.10;;
29412;SDS011;16389;50.126;8.450;2023-04-29T10:30:17;2.47;;;2.05;;
29412;SDS011;16389;50.126;8.450;2023-04-29T10:32:44;2.42;;;2.22;;
29412;SDS011;16389;50.126;8.450;2023-04-29T10:35:12;3.22;;;2.60;;
29412;SDS011;16389;50.126;8.450;2023-04-29T10:37:39;2.78;;;2.20;;
29412;SDS011;16389;50.126;8.450;2023-04-29T10:50:33;1.50;;;1.40;;
29412;SDS011;16389;50.126;8.450;2023-04-29T10:53:06;1.55;;;1.30;;
29412;SDS011;16389;50.126;8.450;2023-04-29T10:55:34;2.05;;;1.23;;
29412;SDS011;16389;50.126;8.450;2023-04-29T10:58:02;1.20;;;1.08;;
29412;SDS011;16389;50.126;8.450;2023-04-29T11:00:33;1.23;;;1.10;;
29412;SDS011;16389;50.126;8.450;2023-04-29T11:03:02;1.90;;;1.13;;
29412;SDS011;16389;50.126;8.450;2023-04-29T11:05:36;1.40;;;1.30;;
29412;SDS011;16389;50.126;8.450;2023-04-29T11:11:04;1.20;;;1.00;;
29412;SDS011;16389;50.126;8.450;2023-04-29T11:13:39;1.92;;;1.40;;
29412;SDS011;16389;50.126;8.450;2023-04-29T11:16:05;2.88;;;1.23;;
29412;SDS011;16389;50.126;8.450;2023-04-29T11:18:33;1.65;;;1.27;;
29412;SDS011;16389;50.126;8.450;2023-04-29T11:23:29;2.22;;;1.50;;
29412;SDS011;16389;50.126;8.450;2023-04-29T11:25:55;1.85;;;1.48;;
29412;SDS011;16389;50.126;8.450;2023-04-29T11:28:21;2.47;;;1.60;;
29412;SDS011;16389;50.126;8.450;2023-04-29T11:30:51;1.30;;;1.20;;
29412;SDS011;16389;50.126;8.450;2023-04-29T11:33:20;1.45;;;1.30;;
29412;SDS011;16389;50.126;8.450;2023-04-29T11:35:46;1.95;;;1.40;;
29412;SDS011;16389;50.126;8.450;2023-04-29T11:38:12;2.13;;;1.20;;
29412;SDS011;16389;50.126;8.450;2023-04-29T11:40:41;1.23;;;1.10;;
29412;SDS011;16389;50.126;8.450;2023-04-29T11:43:17;1.05;;;0.95;;
29412;SDS011;16389;50.126;8.450;2023-04-29T11:45:47;1.42;;;1.33;;
29412;SDS011;16389;50.126;8.450;2023-04-29T11:48:19;1.10;;;1.00;;
29412;SDS011;16389;50.126;8.450;2023-04-29T11:50:46;1.35;;;1.25;;
29412;SDS011;16389;50.126;8.450;2023-04-29T11:53:13;1.27;;;1.13;;
29412;SDS011;16389;50.126;8.450;2023-04-29T11:55:43;1.70;;;1.50;;
29412;SDS011;16389;50.126;8.450;2023-04-29T11:58:09;1.65;;;1.30;;
29412;SDS011;16389;50.126;8.450;2023-04-29T12:00:35;1.85;;;1.55;;
29412;SDS011;16389;50.126;8.450;2023-04-29T12:03:01;1.58;;;1.48;;
29412;SDS011;16389;50.126;8.450;2023-04-29T12:05:49;1.77;;;1.67;;
29412;SDS011;16389;50.126;8.450;2023-04-29T12:08:19;1.77;;;1.52;;
29412;SDS011;16389;50.126;8.450;2023-04-29T12:10:46;1.80;;;1.40;;
29412;SDS011;16389;50.126;8.450;2023-04-29T12:13:12;1.40;;;1.30;;
29412;SDS011;16389;50.126;8.450;2023-04-29T12:15:39;2.10;;;1.73;;
29412;SDS011;16389;50.126;8.450;2023-04-29T12:18:05;1.55;;;1.38;;
29412;SDS011;16389;50.126;8.450;2023-04-29T12:20:32;1.50;;;1.40;;
29412;SDS011;16389;50.126;8.450;2023-04-29T12:23:11;2.05;;;1.60;;
29412;SDS011;16389;50.126;8.450;2023-04-29T12:25:37;1.90;;;1.65;;
29412;SDS011;16389;50.126;8.450;2023-04-29T12:28:05;1.95;;;1.60;;
29412;SDS011;16389;50.126;8.450;2023-04-29T12:30:37;1.70;;;1.60;;
29412;SDS011;16389;50.126;8.450;2023-04-29T12:33:03;2.15;;;1.60;;
29412;SDS011;16389;50.126;8.450;2023-04-29T12:35:28;1.70;;;1.45;;
29412;SDS011;16389;50.126;8.450;2023-04-29T12:37:56;2.10;;;1.90;;
29412;SDS011;16389;50.126;8.450;2023-04-29T12:40:23;1.90;;;1.80;;
29412;SDS011;16389;50.126;8.450;2023-04-29T12:42:49;2.35;;;1.92;;
29412;SDS011;16389;50.126;8.450;2023-04-29T12:45:30;1.90;;;1.70;;
29412;SDS011;16389;50.126;8.450;2023-04-29T12:47:59;2.13;;;1.92;;
29412;SDS011;16389;50.126;8.450;2023-04-29T12:50:35;1.83;;;1.73;;
29412;SDS011;16389;50.126;8.450;2023-04-29T12:53:05;1.90;;;1.80;;
29412;SDS011;16389;50.126;8.450;2023-04-29T12:55:32;1.85;;;1.65;;
29412;SDS011;16389;50.126;8.450;2023-04-29T12:57:59;1.65;;;1.55;;
29412;SDS011;16389;50.126;8.450;2023-04-29T13:00:26;2.05;;;1.85;;
29412;SDS011;16389;50.126;8.450;2023-04-29T13:02:51;1.70;;;1.48;;
29412;SDS011;16389;50.126;8.450;2023-04-29T13:05:17;2.00;;;1.80;;
29412;SDS011;16389;50.126;8.450;2023-04-29T13:07:43;1.90;;;1.80;;
29412;SDS011;16389;50.126;8.450;2023-04-29T13:10:09;1.88;;;1.70;;
29412;SDS011;16389;50.126;8.450;2023-04-29T13:12:36;1.92;;;1.75;;
29412;SDS011;16389;50.126;8.450;2023-04-29T13:15:02;1.70;;;1.60;;
29412;SDS011;16389;50.126;8.450;2023-04-29T13:17:28;2.83;;;2.63;;
29412;SDS011;16389;50.126;8.450;2023-04-29T13:19:54;2.20;;;1.98;;
29412;SDS011;16389;50.126;8.450;2023-04-29T13:22:20;2.25;;;2.05;;
29412;SDS011;16389;50.126;8.450;2023-04-29T13:24:45;2.40;;;2.20;;
29412;SDS011;16389;50.126;8.450;2023-04-29T13:27:11;2.28;;;1.80;;
29412;SDS011;16389;50.126;8.450;2023-04-29T13:29:37;2.10;;;1.90;;
29412;SDS011;16389;50.126;8.450;2023-04-29T13:32:03;2.10;;;1.98;;
29412;SDS011;16389;50.126;8.450;2023-04-29T13:34:28;2.28;;;1.70;;
29412;SDS011;16389;50.126;8.450;2023-04-29T13:36:54;2.72;;;2.00;;
29412;SDS011;16389;50.126;8.450;2023-04-29T13:39:20;26.23;;;7.25;;
29412;SDS011;16389;50.126;8.450;2023-04-29T13:41:47;2.65;;;2.45;;
29412;SDS011;16389;50.126;8.450;2023-04-29T13:44:13;2.47;;;1.92;;
29412;SDS011;16389;50.126;8.450;2023-04-29T13:46:38;1.90;;;1.70;;
29412;SDS011;16389;50.126;8.450;2023-04-29T13:49:04;4.35;;;2.08;;
29412;SDS011;16389;50.126;8.450;2023-04-29T13:51:30;1.88;;;1.70;;
29412;SDS011;16389;50.126;8.450;2023-04-29T13:53:56;2.17;;;1.98;;
29412;SDS011;16389;50.126;8.450;2023-04-29T13:56:21;2.53;;;2.05;;
29412;SDS011;16389;50.126;8.450;2023-04-29T13:58:49;2.70;;;2.35;;
29412;SDS011;16389;50.126;8.450;2023-04-29T14:01:15;2.40;;;2.20;;
29412;SDS011;16389;50.126;8.450;2023-04-29T14:03:41;2.10;;;1.90;;
29412;SDS011;16389;50.126;8.450;2023-04-29T14:06:08;2.60;;;2.40;;
29412;SDS011;16389;50.126;8.450;2023-04-29T14:08:34;2.20;;;2.00;;
29412;SDS011;16389;50.126;8.450;2023-04-29T14:10:59;2.55;;;2.35;;
29412;SDS011;16389;50.126;8.450;2023-04-29T14:13:25;2.28;;;2.05;;
29412;SDS011;16389;50.126;8.450;2023-04-29T14:15:51;2.08;;;1.88;;
29412;SDS011;16389;50.126;8.450;2023-04-29T14:18:18;4.28;;;2.78;;
29412;SDS011;16389;50.126;8.450;2023-04-29T14:20:43;3.42;;;3.15;;
29412;SDS011;16389;50.126;8.450;2023-04-29T14:23:09;6.95;;;3.47;;
29412;SDS011;16389;50.126;8.450;2023-04-29T14:25:35;3.53;;;3.22;;
29412;SDS011;16389;50.126;8.450;2023-04-29T14:28:00;3.20;;;2.90;;
29412;SDS011;16389;50.126;8.450;2023-04-29T14:30:26;2.83;;;2.50;;
29412;SDS011;16389;50.126;8.450;2023-04-29T14:32:51;3.17;;;2.88;;
29412;SDS011;16389;50.126;8.450;2023-04-29T14:35:17;3.08;;;2.60;;
29412;SDS011;16389;50.126;8.450;2023-04-29T14:37:43;4.53;;;3.38;;
29412;SDS011;16389;50.126;8.450;2023-04-29T14:40:09;3.83;;;3.35;;
29412;SDS011;16389;50.126;8.450;2023-04-29T14:42:34;3.30;;;3.00;;
29412;SDS011;16389;50.126;8.450;2023-04-29T14:45:00;3.95;;;3.50;;
29412;SDS011;16389;50.126;8.450;2023-04-29T14:47:26;3.90;;;3.38;;
29412;SDS011;16389;50.126;8.450;2023-04-29T14:49:52;4.50;;;4.10;;
29412;SDS011;16389;50.126;8.450;2023-04-29T14:52:18;5.03;;;4.10;;
29412;SDS011;16389;50.126;8.450;2023-04-29T14:54:44;5.57;;;5.05;;
29412;SDS011;16389;50.126;8.450;2023-04-29T14:57:09;6.10;;;5.20;;
29412;SDS011;16389;50.126;8.450;2023-04-29T14:59:35;7.70;;;4.40;;
29412;SDS011;16389;50.126;8.450;2023-04-29T15:02:00;5.85;;;4.82;;
29412;SDS011;16389;50.126;8.450;2023-04-29T15:04:27;5.45;;;4.75;;
29412;SDS011;16389;50.126;8.450;2023-04-29T15:06:56;6.75;;;5.70;;
29412;SDS011;16389;50.126;8.450;2023-04-29T15:09:22;6.20;;;5.60;;
29412;SDS011;16389;50.126;8.450;2023-04-29T15:11:48;6.65;;;5.97;;
29412;SDS011;16389;50.126;8.450;2023-04-29T15:14:14;6.13;;;5.53;;
29412;SDS011;16389;50.126;8.450;2023-04-29T15:16:40;5.65;;;4.97;;
29412;SDS011;16389;50.126;8.450;2023-04-29T15:19:06;7.43;;;5.80;;
29412;SDS011;16389;50.126;8.450;2023-04-29T15:21:31;7.45;;;6.28;;
29412;SDS011;16389;50.126;8.450;2023-04-29T15:23:58;9.15;;;6.20;;